createdAt,value
2018-07-15T00:01:49.800Z,17.20
2018-07-15T00:04:17.043Z,17.10
2018-07-15T00:06:44.368Z,17.00
2018-07-15T00:09:11.650Z,17.00
2018-07-15T00:14:06.144Z,16.90
2018-07-15T00:16:33.452Z,16.90
2018-07-15T00:19:02.772Z,16.80
2018-07-15T00:23:57.555Z,16.80
2018-07-15T00:26:24.816Z,16.70
2018-07-15T00:28:52.102Z,17.30
2018-07-15T00:31:19.398Z,16.70
2018-07-15T00:36:13.906Z,16.60
2018-07-15T00:38:41.162Z,16.60
2018-07-15T00:41:08.628Z,16.50
2018-07-15T00:43:36.064Z,16.50
2018-07-15T00:46:03.432Z,16.40
2018-07-15T00:48:30.731Z,16.20
2018-07-15T00:50:58.015Z,16.80
2018-07-15T00:53:25.263Z,16.00
2018-07-15T00:55:52.580Z,16.00
2018-07-15T00:58:19.802Z,16.00
2018-07-15T01:00:52.724Z,16.60
2018-07-15T01:05:47.283Z,16.00
2018-07-15T01:08:14.528Z,16.00
2018-07-15T01:10:41.783Z,15.50
2018-07-15T01:15:36.322Z,16.00
2018-07-15T01:20:31.035Z,16.00
2018-07-15T01:22:58.298Z,16.00
2018-07-15T01:25:25.567Z,15.90
2018-07-15T01:27:52.782Z,16.60
2018-07-15T01:30:20.033Z,16.10
2018-07-15T01:32:47.251Z,15.80
2018-07-15T01:35:14.490Z,15.80
2018-07-15T01:40:08.971Z,15.80
2018-07-15T01:45:03.448Z,15.70
2018-07-15T01:47:30.699Z,15.70
2018-07-15T01:49:57.923Z,15.70
2018-07-15T01:52:25.158Z,15.60
2018-07-15T01:54:52.364Z,15.60
2018-07-15T01:57:19.612Z,15.50
2018-07-15T02:02:14.125Z,15.40
2018-07-15T02:04:41.366Z,15.40
2018-07-15T02:07:08.591Z,15.30
2018-07-15T02:12:03.104Z,15.10
2018-07-15T02:16:57.630Z,15.10
2018-07-15T02:19:24.924Z,14.60
2018-07-15T02:21:52.249Z,15.10
2018-07-15T02:24:19.519Z,15.10
2018-07-15T02:26:46.825Z,15.00
2018-07-15T02:29:14.067Z,15.30
2018-07-15T02:31:41.333Z,15.10
2018-07-15T02:36:36.910Z,14.80
2018-07-15T02:39:06.006Z,14.70
2018-07-15T02:41:33.252Z,14.70
2018-07-15T02:44:00.549Z,14.60
2018-07-15T02:46:27.773Z,14.80
2018-07-15T02:48:55.003Z,14.80
2018-07-15T02:51:22.291Z,14.80
2018-07-15T02:53:49.519Z,14.80
2018-07-15T02:56:16.783Z,14.80
2018-07-15T02:58:44.047Z,15.70
2018-07-15T03:01:11.287Z,15.40
2018-07-15T03:11:00.279Z,14.70
2018-07-15T03:13:27.595Z,14.70
2018-07-15T03:18:22.131Z,14.60
2018-07-15T03:25:43.851Z,14.40
2018-07-15T03:28:11.139Z,14.40
2018-07-15T03:30:38.396Z,14.10
2018-07-15T03:33:05.733Z,14.90
2018-07-15T03:35:32.958Z,14.40
2018-07-15T03:38:00.237Z,14.20
2018-07-15T03:40:27.474Z,14.60
2018-07-15T03:42:54.702Z,14.30
2018-07-15T03:45:21.949Z,14.30
2018-07-15T03:50:16.473Z,14.20
2018-07-15T03:52:43.746Z,14.20
2018-07-15T03:57:38.351Z,14.20
2018-07-15T04:00:05.713Z,14.20
2018-07-15T04:02:32.990Z,15.90
2018-07-15T04:05:00.263Z,14.40
2018-07-15T04:07:27.509Z,13.70
2018-07-15T04:09:54.868Z,14.40
2018-07-15T04:12:22.194Z,14.50
2018-07-15T04:14:49.442Z,14.50
2018-07-15T04:17:16.686Z,14.60
2018-07-15T04:19:43.991Z,14.50
2018-07-15T04:22:11.252Z,13.70
2018-07-15T04:24:38.508Z,15.40
2018-07-15T04:27:05.759Z,15.00
2018-07-15T04:29:33.016Z,14.70
2018-07-15T04:32:00.274Z,14.70
2018-07-15T04:34:27.617Z,14.80
2018-07-15T04:36:54.895Z,14.90
2018-07-15T04:39:22.186Z,14.90
2018-07-15T04:41:49.463Z,14.90
2018-07-15T04:46:43.948Z,15.10
2018-07-15T04:49:11.270Z,15.10
2018-07-15T04:51:38.518Z,15.20
2018-07-15T04:56:33.039Z,15.20
2018-07-15T04:59:00.322Z,15.10
2018-07-15T05:01:27.600Z,15.00
2018-07-15T05:03:55.101Z,15.00
2018-07-15T05:06:22.354Z,15.10
2018-07-15T05:08:49.838Z,15.20
2018-07-15T05:11:17.205Z,15.30
2018-07-15T05:21:06.163Z,15.70
2018-07-15T05:23:33.386Z,15.70
2018-07-15T05:26:00.656Z,15.70
2018-07-15T05:28:27.949Z,15.70
2018-07-15T05:30:55.309Z,16.00
2018-07-15T05:33:22.563Z,16.20
2018-07-15T05:35:49.867Z,16.40
2018-07-15T05:38:17.184Z,16.60
2018-07-15T05:40:44.436Z,16.70
2018-07-15T05:43:11.702Z,17.60
2018-07-15T05:45:39.105Z,17.50
2018-07-15T05:48:06.398Z,17.40
2018-07-15T05:50:33.652Z,17.30
2018-07-15T05:53:01.012Z,17.40
2018-07-15T05:55:28.251Z,17.60
2018-07-15T05:57:55.582Z,17.70
2018-07-15T06:00:22.804Z,17.70
2018-07-15T06:02:50.055Z,17.70
2018-07-15T06:05:17.409Z,17.80
2018-07-15T06:07:45.945Z,18.20
2018-07-15T06:10:13.253Z,18.10
2018-07-15T06:12:41.044Z,18.10
2018-07-15T06:15:08.623Z,18.20
2018-07-15T06:17:35.940Z,18.30
2018-07-15T06:20:03.770Z,18.40
2018-07-15T06:22:33.356Z,18.60
2018-07-15T06:25:00.653Z,18.70
2018-07-15T06:29:55.190Z,18.80
2018-07-15T06:34:49.771Z,19.10
2018-07-15T06:37:17.027Z,19.20
2018-07-15T06:39:44.267Z,19.40
2018-07-15T06:42:11.515Z,19.60
2018-07-15T06:44:38.866Z,19.80
2018-07-15T06:47:06.224Z,19.90
2018-07-15T06:52:00.839Z,20.60
2018-07-15T06:54:28.158Z,20.70
2018-07-15T06:56:55.456Z,20.90
2018-07-15T06:59:22.733Z,21.10
2018-07-15T07:01:50.135Z,21.30
2018-07-15T07:04:17.397Z,21.60
2018-07-15T07:06:44.647Z,21.80
2018-07-15T07:09:11.918Z,22.10
2018-07-15T07:11:39.208Z,22.20
2018-07-15T07:14:06.814Z,22.40
2018-07-15T07:16:34.362Z,22.60
2018-07-15T07:19:01.603Z,22.80
2018-07-15T07:23:56.071Z,23.50
2018-07-15T07:26:23.301Z,23.80
2018-07-15T07:28:50.541Z,24.00
2018-07-15T07:31:17.782Z,24.30
2018-07-15T07:36:12.425Z,24.90
2018-07-15T07:38:39.683Z,25.40
2018-07-15T07:41:06.991Z,25.70
2018-07-15T07:43:34.200Z,25.90
2018-07-15T07:46:01.487Z,26.20
2018-07-15T07:48:28.722Z,26.60
2018-07-15T07:50:55.996Z,27.10
2018-07-15T07:53:23.311Z,27.40
2018-07-15T07:55:50.561Z,27.80
2018-07-15T07:58:17.827Z,27.60
2018-07-15T08:00:45.067Z,27.40
2018-07-15T08:03:12.310Z,27.40
2018-07-15T08:05:39.798Z,27.80
2018-07-15T08:08:07.156Z,28.10
2018-07-15T08:10:34.613Z,28.50
2018-07-15T08:13:01.860Z,28.70
2018-07-15T08:15:29.106Z,29.10
2018-07-15T08:17:56.358Z,29.40
2018-07-15T08:20:23.655Z,29.20
2018-07-15T08:25:18.211Z,29.10
2018-07-15T08:27:45.517Z,29.40
2018-07-15T08:30:24.431Z,30.00
2018-07-15T08:32:51.675Z,30.70
2018-07-15T08:35:18.926Z,31.40
2018-07-15T08:40:13.423Z,32.50
2018-07-15T08:42:40.671Z,32.50
2018-07-15T08:45:07.904Z,32.80
2018-07-15T08:47:35.151Z,33.10
2018-07-15T08:52:29.736Z,32.80
2018-07-15T08:54:56.988Z,32.40
2018-07-15T08:57:24.274Z,32.30
2018-07-15T08:59:51.595Z,32.50
2018-07-15T09:02:18.808Z,32.10
2018-07-15T09:04:46.054Z,32.10
2018-07-15T09:07:13.307Z,32.40
2018-07-15T09:09:40.571Z,32.70
2018-07-15T09:12:07.859Z,33.80
2018-07-15T09:14:35.089Z,34.30
2018-07-15T09:17:02.363Z,34.20
2018-07-15T09:19:29.615Z,35.70
2018-07-15T09:21:56.920Z,35.80
2018-07-15T09:24:24.125Z,35.90
2018-07-15T09:29:18.627Z,36.70
2018-07-15T09:31:45.870Z,37.20
2018-07-15T09:34:13.083Z,37.50
2018-07-15T09:41:34.885Z,38.40
2018-07-15T09:44:02.184Z,38.80
2018-07-15T09:46:29.418Z,38.70
2018-07-15T09:48:56.688Z,38.90
2018-07-15T09:51:24.098Z,38.80
2018-07-15T09:53:51.402Z,38.70
2018-07-15T09:58:46.845Z,38.10
2018-07-15T10:01:14.100Z,36.50
2018-07-15T10:03:41.340Z,35.60
2018-07-15T10:06:08.615Z,35.00
2018-07-15T10:08:35.884Z,34.60
2018-07-15T10:11:03.191Z,34.00
2018-07-15T10:18:24.992Z,32.40
2018-07-15T10:20:52.260Z,32.10
2018-07-15T10:23:19.556Z,31.70
2018-07-15T10:25:46.791Z,31.80
2018-07-15T10:28:14.370Z,31.30
2018-07-15T10:30:41.654Z,31.30
2018-07-15T10:33:08.932Z,31.70
2018-07-15T10:35:36.201Z,32.10
2018-07-15T10:38:03.486Z,32.30
2018-07-15T10:40:30.779Z,32.90
2018-07-15T10:42:58.009Z,33.80
2018-07-15T10:45:25.267Z,34.60
2018-07-15T10:47:52.533Z,34.80
2018-07-15T10:50:19.792Z,34.10
2018-07-15T10:52:47.068Z,32.40
2018-07-15T10:55:14.311Z,31.50
2018-07-15T10:57:41.542Z,30.60
2018-07-15T11:00:08.815Z,29.90
2018-07-15T11:02:36.079Z,29.40
2018-07-15T11:05:03.382Z,29.00
2018-07-15T11:07:30.659Z,28.50
2018-07-15T11:09:57.943Z,28.10
2018-07-15T11:12:25.247Z,27.70
2018-07-15T11:14:53.532Z,26.90
2018-07-15T11:17:20.771Z,27.40
2018-07-15T11:19:48.071Z,27.10
2018-07-15T11:22:15.330Z,26.90
2018-07-15T11:24:42.575Z,26.80
2018-07-15T11:27:09.830Z,26.70
2018-07-15T11:29:37.154Z,26.60
2018-07-15T11:32:04.447Z,26.20
2018-07-15T11:36:58.975Z,25.00
2018-07-15T11:39:26.227Z,24.80
2018-07-15T11:41:53.452Z,24.80
2018-07-15T11:44:20.703Z,24.60
2018-07-15T11:46:47.951Z,24.70
2018-07-15T11:49:15.201Z,24.60
2018-07-15T11:51:42.439Z,24.40
2018-07-15T11:54:09.728Z,24.60
2018-07-15T11:56:37.030Z,24.60
2018-07-15T12:01:31.627Z,24.60
2018-07-15T12:03:58.828Z,24.60
2018-07-15T12:06:35.317Z,24.50
2018-07-15T12:09:03.340Z,25.00
2018-07-15T12:11:30.584Z,24.50
2018-07-15T12:13:57.868Z,24.50
2018-07-15T12:16:25.484Z,24.40
2018-07-15T12:18:52.770Z,24.40
2018-07-15T12:21:20.015Z,24.40
2018-07-15T12:26:14.563Z,24.40
2018-07-15T12:28:41.787Z,24.30
2018-07-15T12:31:09.052Z,24.40
2018-07-15T12:33:36.355Z,24.30
2018-07-15T12:36:03.702Z,24.20
2018-07-15T12:38:31.013Z,24.00
2018-07-15T12:40:58.323Z,24.10
2018-07-15T12:43:26.395Z,24.10
2018-07-15T12:45:53.660Z,23.90
2018-07-15T12:48:21.040Z,23.50
2018-07-15T12:50:48.419Z,23.80
2018-07-15T12:53:15.672Z,23.70
2018-07-15T12:55:42.960Z,23.60
2018-07-15T13:00:37.492Z,23.70
2018-07-15T13:03:04.753Z,24.00
2018-07-15T13:05:31.989Z,23.80
2018-07-15T13:07:59.240Z,24.10
2018-07-15T13:10:26.515Z,24.20
2018-07-15T13:12:53.796Z,24.60
2018-07-15T13:15:21.097Z,25.00
2018-07-15T13:20:15.599Z,25.10
2018-07-15T13:22:42.862Z,25.40
2018-07-15T13:25:10.158Z,25.20
2018-07-15T13:27:37.466Z,25.80
2018-07-15T13:30:04.921Z,25.90
2018-07-15T13:32:32.142Z,25.30
2018-07-15T13:37:26.652Z,26.30
2018-07-15T13:39:53.914Z,26.50
2018-07-15T13:42:21.211Z,26.60
2018-07-15T13:49:43.135Z,26.60
2018-07-15T13:52:10.406Z,26.90
2018-07-15T13:54:37.651Z,27.10
2018-07-15T13:57:04.923Z,27.20
2018-07-15T13:59:32.158Z,27.30
2018-07-15T14:01:59.423Z,27.40
2018-07-15T14:04:26.687Z,27.50
2018-07-15T14:09:21.424Z,27.20
2018-07-15T14:14:15.989Z,27.00
2018-07-15T14:16:43.311Z,27.00
2018-07-15T14:19:10.598Z,26.70
2018-07-15T14:24:05.195Z,27.10
2018-07-15T14:26:32.484Z,27.20
2018-07-15T14:28:59.750Z,27.40
2018-07-15T14:31:27.030Z,27.40
2018-07-15T14:33:54.302Z,27.40
2018-07-15T14:36:21.591Z,27.40
2018-07-15T14:38:48.899Z,27.50
2018-07-15T14:41:16.743Z,27.40
2018-07-15T14:43:44.055Z,27.40
2018-07-15T14:46:11.316Z,27.40
2018-07-15T14:48:38.611Z,27.50
2018-07-15T14:51:05.931Z,27.50
2018-07-15T14:53:33.190Z,27.50
2018-07-15T14:56:00.510Z,27.60
2018-07-15T14:58:27.737Z,27.50
2018-07-15T15:00:55.052Z,27.60
2018-07-15T15:03:22.307Z,27.90
2018-07-15T15:05:49.858Z,28.00
2018-07-15T15:08:17.111Z,27.90
2018-07-15T15:10:44.351Z,27.40
2018-07-15T15:13:11.683Z,27.60
2018-07-15T15:15:38.890Z,28.00
2018-07-15T15:18:06.143Z,27.90
2018-07-15T15:20:33.423Z,28.00
2018-07-15T15:23:00.655Z,28.10
2018-07-15T15:25:27.928Z,28.20
2018-07-15T15:27:55.174Z,28.20
2018-07-15T15:30:22.541Z,27.60
2018-07-15T15:32:49.784Z,27.30
2018-07-15T15:35:17.081Z,27.20
2018-07-15T15:37:44.528Z,26.90
2018-07-15T15:40:11.786Z,25.00
2018-07-15T15:42:39.024Z,26.50
2018-07-15T15:45:06.444Z,26.50
2018-07-15T15:47:33.648Z,26.20
2018-07-15T15:50:00.908Z,26.00
2018-07-15T15:52:28.735Z,25.90
2018-07-15T15:54:56.057Z,26.10
2018-07-15T15:57:23.331Z,25.90
2018-07-15T15:59:50.574Z,25.80
2018-07-15T16:02:17.828Z,25.80
2018-07-15T16:04:45.075Z,25.80
2018-07-15T16:07:12.339Z,25.70
2018-07-15T16:09:39.580Z,25.70
2018-07-15T16:17:01.465Z,25.80
2018-07-15T16:19:28.724Z,25.70
2018-07-15T16:21:56.001Z,25.60
2018-07-15T16:24:23.339Z,25.50
2018-07-15T16:26:50.591Z,25.20
2018-07-15T16:29:17.872Z,25.10
2018-07-15T16:31:45.150Z,25.00
2018-07-15T16:34:12.498Z,24.60
2018-07-15T16:36:39.932Z,23.30
2018-07-15T16:39:07.481Z,24.50
2018-07-15T16:44:02.139Z,24.10
2018-07-15T16:46:29.416Z,24.10
2018-07-15T16:48:56.692Z,24.20
2018-07-15T16:51:23.953Z,24.40
2018-07-15T16:53:51.596Z,24.40
2018-07-15T16:56:19.557Z,24.50
2018-07-15T16:58:46.836Z,24.50
2018-07-15T17:01:14.114Z,24.30
2018-07-15T17:03:41.366Z,24.20
2018-07-15T17:06:08.647Z,24.20
2018-07-15T17:08:35.901Z,24.00
2018-07-15T17:13:30.506Z,23.80
2018-07-15T17:15:57.795Z,23.80
2018-07-15T17:18:25.068Z,24.00
2018-07-15T17:20:52.351Z,24.10
2018-07-15T17:23:19.617Z,24.10
2018-07-15T17:25:46.913Z,24.00
2018-07-15T17:28:14.187Z,24.00
2018-07-15T17:30:41.447Z,24.20
2018-07-15T17:33:08.705Z,24.10
2018-07-15T17:35:35.975Z,24.00
2018-07-15T17:38:03.239Z,24.20
2018-07-15T17:40:30.546Z,24.10
2018-07-15T17:42:58.918Z,23.80
2018-07-15T17:45:27.241Z,23.80
2018-07-15T17:47:55.524Z,23.80
2018-07-15T17:50:22.808Z,23.70
2018-07-15T17:52:50.091Z,23.80
2018-07-15T17:55:17.436Z,23.80
2018-07-15T17:57:44.661Z,23.60
2018-07-15T18:02:39.212Z,23.50
2018-07-15T18:05:06.525Z,23.50
2018-07-15T18:07:33.822Z,23.90
2018-07-15T18:10:01.241Z,23.30
2018-07-15T18:12:28.631Z,22.80
2018-07-15T18:14:56.076Z,23.20
2018-07-15T18:17:23.387Z,23.20
2018-07-15T18:19:50.778Z,22.70
2018-07-15T18:22:18.346Z,22.20
2018-07-15T18:24:45.976Z,23.00
2018-07-15T18:27:13.621Z,23.00
2018-07-15T18:29:41.111Z,22.90
2018-07-15T18:32:08.547Z,22.90
2018-07-15T18:34:35.895Z,22.70
2018-07-15T18:37:05.465Z,22.80
2018-07-15T18:39:32.895Z,22.70
2018-07-15T18:44:27.735Z,22.60
2018-07-15T18:46:55.246Z,22.60
2018-07-15T18:49:23.555Z,22.50
2018-07-15T18:54:19.575Z,22.40
2018-07-15T18:56:46.921Z,22.30
2018-07-15T19:01:45.627Z,22.10
2018-07-15T19:06:40.252Z,21.90
2018-07-15T19:09:07.583Z,21.90
2018-07-15T19:11:35.044Z,21.80
2018-07-15T19:14:02.792Z,21.70
2018-07-15T19:16:30.129Z,20.30
2018-07-15T19:19:01.446Z,21.50
2018-07-15T19:21:30.666Z,20.60
2018-07-15T19:23:58.205Z,19.60
2018-07-15T19:26:25.669Z,19.10
2018-07-15T19:31:20.336Z,21.10
2018-07-15T19:33:50.179Z,19.70
2018-07-15T19:36:17.535Z,20.90
2018-07-15T19:38:48.343Z,20.90
2018-07-15T19:43:43.055Z,20.80
2018-07-15T19:46:10.348Z,20.70
2018-07-15T19:48:37.667Z,20.60
2018-07-15T19:51:04.991Z,20.50
2018-07-15T19:56:02.906Z,20.40
2018-07-15T19:58:30.368Z,19.40
2018-07-15T20:03:24.956Z,20.20
2018-07-15T20:05:52.255Z,20.20
2018-07-15T20:10:46.815Z,20.00
2018-07-15T20:13:15.152Z,20.00
2018-07-15T20:15:42.498Z,19.90
2018-07-15T20:18:09.761Z,19.00
2018-07-15T20:20:37.171Z,19.80
2018-07-15T20:23:04.544Z,19.80
2018-07-15T20:25:31.836Z,19.80
2018-07-15T20:27:59.091Z,19.70
2018-07-15T20:32:53.582Z,19.60
2018-07-15T20:35:20.943Z,19.50
2018-07-15T20:37:48.312Z,18.70
2018-07-15T20:40:15.627Z,18.90
2018-07-15T20:42:42.929Z,18.20
2018-07-15T20:45:10.275Z,18.70
2018-07-15T20:47:37.556Z,21.20
2018-07-15T20:50:04.849Z,19.20
2018-07-15T20:52:32.191Z,18.80
2018-07-15T20:57:26.703Z,19.00
2018-07-15T20:59:54.056Z,18.70
2018-07-15T21:02:21.410Z,19.50
2018-07-15T21:09:43.369Z,18.70
2018-07-15T21:12:10.656Z,19.30
2018-07-15T21:14:38.043Z,18.60
2018-07-15T21:19:32.700Z,18.30
2018-07-15T21:22:00.006Z,18.30
2018-07-15T21:24:27.316Z,18.30
2018-07-15T21:26:54.694Z,17.50
2018-07-15T21:29:21.996Z,18.10
2018-07-15T21:31:49.347Z,19.10
2018-07-15T21:34:16.644Z,18.10
2018-07-15T21:36:43.943Z,18.10
2018-07-15T21:41:38.680Z,18.10
2018-07-15T21:44:06.301Z,18.10
2018-07-15T21:46:33.554Z,18.10
2018-07-15T21:49:00.952Z,18.10
2018-07-15T21:51:28.219Z,16.10
2018-07-15T21:53:55.987Z,16.20
2018-07-15T21:56:23.330Z,18.00
2018-07-15T21:58:50.609Z,16.00
2018-07-15T22:01:17.923Z,18.90
2018-07-15T22:08:57.267Z,17.70
2018-07-15T22:11:24.575Z,16.50
2018-07-15T22:13:51.862Z,17.70
2018-07-15T22:16:19.110Z,17.60
2018-07-15T22:18:46.355Z,17.70
2018-07-15T22:21:13.665Z,17.60
2018-07-15T22:23:40.960Z,17.50
2018-07-15T22:26:08.279Z,17.40
2018-07-15T22:28:35.639Z,17.50
2018-07-15T22:31:03.043Z,19.20
2018-07-15T22:33:30.288Z,17.40
2018-07-15T22:35:57.588Z,17.40
2018-07-15T22:38:24.891Z,17.40
2018-07-15T22:40:52.211Z,17.30
2018-07-15T22:43:19.480Z,17.30
2018-07-15T22:45:46.751Z,17.30
2018-07-15T22:48:14.052Z,17.50
2018-07-15T22:50:41.374Z,17.20
2018-07-15T22:53:08.676Z,17.20
2018-07-15T22:55:36.035Z,17.10
2018-07-15T22:58:03.363Z,17.10
2018-07-15T23:02:58.164Z,17.10
2018-07-15T23:05:55.140Z,17.00
2018-07-15T23:08:23.452Z,17.00
2018-07-15T23:13:18.621Z,16.90
2018-07-15T23:15:46.306Z,16.90
2018-07-15T23:18:13.639Z,16.90
2018-07-15T23:20:41.789Z,17.60
2018-07-15T23:23:09.747Z,16.80
2018-07-15T23:25:37.053Z,16.80
2018-07-15T23:28:05.322Z,16.80
2018-07-15T23:30:33.353Z,16.80
2018-07-15T23:35:29.035Z,16.80
2018-07-15T23:37:56.404Z,16.80
2018-07-15T23:40:23.691Z,16.80
2018-07-15T23:42:51.408Z,17.40
2018-07-15T23:47:46.033Z,16.80
2018-07-15T23:50:13.336Z,16.70
2018-07-15T23:52:41.443Z,16.70
2018-07-15T23:55:08.760Z,16.80
